createdAt,value
2023-05-16T00:01:44.201Z,99890.40
2023-05-16T00:04:12.715Z,99896.80
2023-05-16T00:06:41.259Z,99893.40
2023-05-16T00:09:09.607Z,99890.00
2023-05-16T00:11:38.019Z,99889.80
2023-05-16T00:14:06.378Z,99899.60
2023-05-16T00:16:37.334Z,99911.60
2023-05-16T00:19:06.767Z,99910.20
2023-05-16T00:21:35.189Z,99904.00
2023-05-16T00:24:05.258Z,99892.40
2023-05-16T00:26:33.620Z,99884.60
2023-05-16T00:29:02.627Z,99876.40
2023-05-16T00:31:32.383Z,99891.00
2023-05-16T00:34:00.832Z,99904.00
2023-05-16T00:36:29.363Z,99903.20
2023-05-16T00:38:57.686Z,99893.00
2023-05-16T00:41:26.418Z,99887.00
2023-05-16T00:43:54.809Z,99880.40
2023-05-16T00:46:23.399Z,99878.20
2023-05-16T00:48:53.799Z,99867.00
2023-05-16T00:51:22.230Z,99864.00
2023-05-16T00:53:50.649Z,99862.00
2023-05-16T00:56:21.753Z,99860.60
2023-05-16T00:58:52.827Z,99852.00
2023-05-16T01:01:24.785Z,99873.20
2023-05-16T01:03:54.665Z,99921.00
2023-05-16T01:06:23.224Z,99963.60
2023-05-16T01:08:51.589Z,99969.80
2023-05-16T01:11:37.326Z,99941.60
2023-05-16T01:14:24.784Z,99915.20
2023-05-16T01:16:59.124Z,99924.00
2023-05-16T01:19:39.991Z,99928.20
2023-05-16T01:22:27.867Z,99907.00
2023-05-16T01:25:08.576Z,99897.40
2023-05-16T01:27:39.176Z,99908.80
2023-05-16T01:30:20.156Z,99910.80
2023-05-16T01:32:48.743Z,99901.40
2023-05-16T01:35:17.920Z,99884.60
2023-05-16T01:38:10.268Z,99891.60
2023-05-16T01:41:04.317Z,99914.20
2023-05-16T01:43:47.929Z,99898.40
2023-05-16T01:46:25.700Z,99867.60
2023-05-16T01:49:02.355Z,99834.60
2023-05-16T01:51:35.906Z,99839.60
2023-05-16T01:54:31.773Z,99864.40
2023-05-16T01:57:01.703Z,99886.80
2023-05-16T01:59:31.001Z,99907.40
2023-05-16T02:01:59.551Z,99888.40
2023-05-16T02:04:28.007Z,99864.20
2023-05-16T02:06:57.364Z,99854.40
2023-05-16T02:09:26.263Z,99872.40
2023-05-16T02:11:54.696Z,99883.80
2023-05-16T02:14:23.113Z,99876.80
2023-05-16T02:16:52.209Z,99870.60
2023-05-16T02:19:20.994Z,99862.40
2023-05-16T02:21:49.353Z,99873.20
2023-05-16T02:24:17.707Z,99897.00
2023-05-16T02:26:46.174Z,99917.20
2023-05-16T02:29:16.447Z,99923.00
2023-05-16T02:31:44.905Z,99902.60
2023-05-16T02:34:14.002Z,99891.20
2023-05-16T02:36:43.824Z,99893.60
2023-05-16T02:39:12.260Z,99909.80
2023-05-16T02:41:40.749Z,99932.00
2023-05-16T02:44:10.299Z,99942.80
2023-05-16T02:46:38.652Z,99928.40
2023-05-16T02:49:07.406Z,99909.80
2023-05-16T02:51:35.780Z,99896.60
2023-05-16T02:54:04.189Z,99893.80
2023-05-16T02:56:32.511Z,99890.80
2023-05-16T02:59:00.993Z,99877.80
2023-05-16T03:01:29.368Z,99865.80
2023-05-16T03:03:57.930Z,99869.80
2023-05-16T03:06:26.633Z,99862.20
2023-05-16T03:08:54.954Z,99861.20
2023-05-16T03:11:24.295Z,99871.80
2023-05-16T03:13:52.605Z,99872.20
2023-05-16T03:16:21.813Z,99878.00
2023-05-16T03:18:50.452Z,99875.80
2023-05-16T03:21:18.825Z,99881.80
2023-05-16T03:23:47.231Z,99892.20
2023-05-16T03:26:15.642Z,99900.80
2023-05-16T03:28:43.920Z,99894.20
2023-05-16T03:31:12.252Z,99883.60
2023-05-16T03:33:40.613Z,99875.60
2023-05-16T03:36:09.666Z,99867.80
2023-05-16T03:38:38.207Z,99863.00
2023-05-16T03:41:06.673Z,99870.40
2023-05-16T03:43:35.169Z,99866.80
2023-05-16T03:46:03.843Z,99857.80
2023-05-16T03:48:32.335Z,99856.20
2023-05-16T03:51:00.717Z,99853.60
2023-05-16T03:53:29.020Z,99853.20
2023-05-16T03:55:57.326Z,99846.40
2023-05-16T03:58:25.847Z,99844.40
2023-05-16T04:00:54.265Z,99839.60
2023-05-16T04:03:28.757Z,99844.20
2023-05-16T04:05:58.306Z,99854.00
2023-05-16T04:08:27.018Z,99852.80
2023-05-16T04:10:56.190Z,99853.40
2023-05-16T04:13:25.663Z,99849.60
2023-05-16T04:15:54.362Z,99861.60
2023-05-16T04:18:22.692Z,99864.00
2023-05-16T04:20:51.044Z,99860.60
2023-05-16T04:23:19.413Z,99853.80
2023-05-16T04:25:48.045Z,99851.00
2023-05-16T04:28:16.626Z,99853.20
2023-05-16T04:30:44.992Z,99856.60
2023-05-16T04:33:13.422Z,99866.20
2023-05-16T04:35:41.923Z,99878.20
2023-05-16T04:38:10.223Z,99888.60
2023-05-16T04:40:38.866Z,99908.00
2023-05-16T04:43:07.233Z,99931.40
2023-05-16T04:45:37.661Z,99921.00
2023-05-16T04:48:06.648Z,99906.40
2023-05-16T04:50:35.041Z,99896.20
2023-05-16T04:53:03.395Z,99882.80
2023-05-16T04:55:31.875Z,99873.20
2023-05-16T04:58:00.177Z,99864.20
2023-05-16T05:00:28.863Z,99853.20
2023-05-16T05:02:57.617Z,99846.00
2023-05-16T05:05:26.269Z,99836.80
2023-05-16T05:07:54.944Z,99828.20
2023-05-16T05:10:23.188Z,99824.80
2023-05-16T05:12:51.705Z,99831.80
2023-05-16T05:15:20.467Z,99839.20
2023-05-16T05:17:48.856Z,99835.60
2023-05-16T05:20:17.275Z,99829.20
2023-05-16T05:22:45.665Z,99822.40
2023-05-16T05:25:14.700Z,99811.80
2023-05-16T05:27:43.082Z,99813.80
2023-05-16T05:30:11.883Z,99820.60
2023-05-16T05:32:40.343Z,99829.80
2023-05-16T05:35:08.956Z,99838.60
2023-05-16T05:37:37.307Z,99845.20
2023-05-16T05:40:06.401Z,99849.00
2023-05-16T05:42:34.771Z,99850.20
2023-05-16T05:45:03.302Z,99850.40
2023-05-16T05:47:31.931Z,99857.40
2023-05-16T05:50:00.457Z,99868.00
2023-05-16T05:52:29.009Z,99860.40
2023-05-16T05:54:59.568Z,99850.60
2023-05-16T05:57:28.179Z,99857.20
2023-05-16T05:59:56.596Z,99859.80
2023-05-16T06:02:25.313Z,99850.60
2023-05-16T06:04:53.835Z,99849.00
2023-05-16T06:07:22.249Z,99858.00
2023-05-16T06:09:50.570Z,99858.20
2023-05-16T06:12:18.892Z,99859.40
2023-05-16T06:14:47.208Z,99861.20
2023-05-16T06:17:15.690Z,99860.40
2023-05-16T06:19:44.106Z,99849.80
2023-05-16T06:22:12.476Z,99856.20
2023-05-16T06:24:40.972Z,99860.80
2023-05-16T06:27:09.650Z,99855.20
2023-05-16T06:29:38.260Z,99854.80
2023-05-16T06:32:06.953Z,99851.20
2023-05-16T06:34:35.487Z,99849.80
2023-05-16T06:37:03.999Z,99852.00
2023-05-16T06:39:32.328Z,99855.20
2023-05-16T06:42:01.054Z,99857.80
2023-05-16T06:44:32.809Z,99859.60
2023-05-16T06:47:01.570Z,99862.80
2023-05-16T06:49:30.103Z,99868.20
2023-05-16T06:51:58.455Z,99873.00
2023-05-16T06:54:26.880Z,99863.80
2023-05-16T06:56:55.290Z,99853.60
2023-05-16T06:59:24.840Z,99848.00
2023-05-16T07:01:53.550Z,99847.20
2023-05-16T07:04:21.999Z,99845.80
2023-05-16T07:06:50.445Z,99850.60
2023-05-16T07:09:19.199Z,99859.60
2023-05-16T07:11:47.615Z,99866.60
2023-05-16T07:14:16.109Z,99863.80
2023-05-16T07:16:44.784Z,99862.00
2023-05-16T07:19:13.291Z,99867.60
2023-05-16T07:21:41.893Z,99863.20
2023-05-16T07:24:13.374Z,99866.40
2023-05-16T07:26:43.015Z,99858.80
2023-05-16T07:29:12.174Z,99850.60
2023-05-16T07:31:40.932Z,99844.40
2023-05-16T07:34:10.642Z,99844.20
2023-05-16T07:36:39.377Z,99852.00
2023-05-16T07:39:07.903Z,99856.60
2023-05-16T07:41:36.444Z,99854.00
2023-05-16T07:44:04.941Z,99861.60
2023-05-16T07:46:33.502Z,99862.60
2023-05-16T07:49:02.032Z,99868.60
2023-05-16T07:51:30.815Z,99871.40
2023-05-16T07:53:59.279Z,99878.00
2023-05-16T07:56:27.996Z,99876.80
2023-05-16T07:58:56.554Z,99876.00
2023-05-16T08:01:25.218Z,99876.20
2023-05-16T08:03:53.950Z,99878.60
2023-05-16T08:06:22.529Z,99878.00
2023-05-16T08:08:51.326Z,99876.80
2023-05-16T08:11:22.765Z,99873.80
2023-05-16T08:13:51.494Z,99881.60
2023-05-16T08:16:20.107Z,99888.00
2023-05-16T08:18:48.740Z,99887.20
2023-05-16T08:21:17.287Z,99883.40
2023-05-16T08:23:45.807Z,99882.20
2023-05-16T08:26:14.349Z,99886.80
2023-05-16T08:28:43.583Z,99881.20
2023-05-16T08:31:12.137Z,99880.60
2023-05-16T08:33:40.689Z,99875.80
2023-05-16T08:36:10.209Z,99876.80
2023-05-16T08:38:38.749Z,99877.00
2023-05-16T08:41:07.495Z,99876.20
2023-05-16T08:43:36.940Z,99872.20
2023-05-16T08:46:08.093Z,99874.40
2023-05-16T08:48:38.180Z,99882.80
2023-05-16T08:51:09.084Z,99883.80
2023-05-16T08:53:43.559Z,99879.60
2023-05-16T08:56:13.563Z,99881.80
2023-05-16T08:58:42.333Z,99891.80
2023-05-16T09:01:11.417Z,99892.80
2023-05-16T09:03:40.878Z,99891.00
2023-05-16T09:06:09.398Z,99889.00
2023-05-16T09:08:39.153Z,99894.60
2023-05-16T09:11:08.474Z,99898.20
2023-05-16T09:13:39.365Z,99900.40
2023-05-16T09:16:13.314Z,99898.60
2023-05-16T09:18:44.973Z,99894.80
2023-05-16T09:21:14.179Z,99897.60
2023-05-16T09:23:44.137Z,99901.00
2023-05-16T09:26:12.633Z,99901.20
2023-05-16T09:28:41.310Z,99900.80
2023-05-16T09:31:27.302Z,99900.60
2023-05-16T09:33:58.895Z,99897.20
2023-05-16T09:36:27.605Z,99895.80
2023-05-16T09:38:56.050Z,99888.80
2023-05-16T09:41:24.622Z,99884.60
2023-05-16T09:43:53.143Z,99888.60
2023-05-16T09:46:27.775Z,99888.40
2023-05-16T09:48:56.474Z,99884.40
2023-05-16T09:51:24.969Z,99882.40
2023-05-16T09:53:53.495Z,99883.20
2023-05-16T09:56:21.958Z,99878.20
2023-05-16T09:58:52.885Z,99881.40
2023-05-16T10:01:21.373Z,99878.20
2023-05-16T10:03:51.192Z,99879.60
2023-05-16T10:06:20.235Z,99882.20
2023-05-16T10:08:49.579Z,99873.00
2023-05-16T10:11:19.176Z,99876.80
2023-05-16T10:13:53.489Z,99877.00
2023-05-16T10:16:24.230Z,99873.40
2023-05-16T10:18:53.366Z,99880.40
2023-05-16T10:21:23.856Z,99873.80
2023-05-16T10:23:54.156Z,99867.20
2023-05-16T10:26:23.826Z,99875.40
2023-05-16T10:28:53.455Z,99868.40
2023-05-16T10:31:22.321Z,99863.20
2023-05-16T10:33:51.184Z,99864.00
2023-05-16T10:36:19.987Z,99854.00
2023-05-16T10:38:48.920Z,99854.00
2023-05-16T10:41:18.617Z,99848.40
2023-05-16T10:43:57.813Z,99845.20
2023-05-16T10:46:29.416Z,99837.80
2023-05-16T10:48:58.835Z,99836.00
2023-05-16T10:51:35.579Z,99837.40
2023-05-16T10:54:08.584Z,99835.20
2023-05-16T10:56:37.273Z,99830.20
2023-05-16T10:59:27.378Z,99829.00
2023-05-16T11:01:56.985Z,99828.20
2023-05-16T11:04:51.548Z,99826.80
2023-05-16T11:07:21.935Z,99818.60
2023-05-16T11:10:07.104Z,99818.80
2023-05-16T11:12:52.593Z,99807.20
2023-05-16T11:15:26.843Z,99807.00
2023-05-16T11:18:09.576Z,99800.80
2023-05-16T11:20:39.720Z,99791.60
2023-05-16T11:23:17.300Z,99779.20
2023-05-16T11:25:47.317Z,99774.40
2023-05-16T11:28:15.828Z,99772.20
2023-05-16T11:30:52.807Z,99770.20
2023-05-16T11:33:21.631Z,99766.40
2023-05-16T11:36:16.269Z,99761.40
2023-05-16T11:38:45.214Z,99762.40
2023-05-16T11:41:15.711Z,99757.60
2023-05-16T11:43:45.777Z,99757.60
2023-05-16T11:46:16.626Z,99759.40
2023-05-16T11:48:46.651Z,99758.60
2023-05-16T11:51:19.146Z,99761.80
2023-05-16T11:53:50.276Z,99761.80
2023-05-16T11:56:19.008Z,99756.00
2023-05-16T11:58:50.946Z,99756.60
2023-05-16T12:01:19.516Z,99757.40
2023-05-16T12:04:00.533Z,99755.80
2023-05-16T12:06:31.449Z,99754.60
2023-05-16T12:09:02.549Z,99754.40
2023-05-16T12:11:31.443Z,99758.20
2023-05-16T12:14:00.044Z,99759.20
2023-05-16T12:16:28.674Z,99749.80
2023-05-16T12:18:57.470Z,99751.60
2023-05-16T12:21:26.673Z,99754.80
2023-05-16T12:23:58.938Z,99752.60
2023-05-16T12:26:33.646Z,99749.40
2023-05-16T12:29:04.326Z,99747.80
2023-05-16T12:31:37.663Z,99745.60
2023-05-16T12:34:27.402Z,99742.40
2023-05-16T12:36:55.849Z,99743.60
2023-05-16T12:39:24.444Z,99743.00
2023-05-16T12:41:52.844Z,99746.60
2023-05-16T12:44:21.422Z,99738.80
2023-05-16T12:46:52.034Z,99734.00
2023-05-16T12:49:22.089Z,99728.00
2023-05-16T12:51:55.768Z,99727.40
2023-05-16T12:54:24.294Z,99726.80
2023-05-16T12:56:52.797Z,99727.80
2023-05-16T12:59:21.281Z,99728.80
2023-05-16T13:01:49.728Z,99726.20
2023-05-16T13:04:20.282Z,99722.80
2023-05-16T13:06:59.099Z,99708.60
2023-05-16T13:09:38.249Z,99701.20
2023-05-16T13:12:06.911Z,99702.00
2023-05-16T13:14:35.338Z,99698.60
2023-05-16T13:17:04.743Z,99689.60
2023-05-16T13:19:33.371Z,99690.60
2023-05-16T13:22:01.931Z,99694.60
2023-05-16T13:24:30.795Z,99695.60
2023-05-16T13:26:59.842Z,99693.20
2023-05-16T13:29:28.400Z,99691.60
2023-05-16T13:31:56.878Z,99683.40
2023-05-16T13:34:25.419Z,99681.80
2023-05-16T13:36:54.950Z,99683.60
2023-05-16T13:39:24.019Z,99689.80
2023-05-16T13:41:52.957Z,99684.40
2023-05-16T13:44:22.794Z,99682.00
2023-05-16T13:46:51.513Z,99680.20
2023-05-16T13:49:20.062Z,99676.80
2023-05-16T13:51:48.524Z,99674.20
2023-05-16T13:54:17.405Z,99679.40
2023-05-16T13:56:46.609Z,99680.20
2023-05-16T13:59:23.703Z,99689.20
2023-05-16T14:02:01.405Z,99697.60
2023-05-16T14:04:29.916Z,99695.00
2023-05-16T14:06:58.640Z,99702.00
2023-05-16T14:09:27.154Z,99705.80
2023-05-16T14:11:55.574Z,99706.40
2023-05-16T14:14:24.001Z,99714.20
2023-05-16T14:16:52.951Z,99721.60
2023-05-16T14:19:21.927Z,99727.00
2023-05-16T14:21:50.449Z,99734.40
2023-05-16T14:24:18.971Z,99736.60
2023-05-16T14:26:47.354Z,99736.80
2023-05-16T14:29:15.707Z,99740.60
2023-05-16T14:31:44.126Z,99738.20
2023-05-16T14:34:12.552Z,99742.00
2023-05-16T14:36:41.132Z,99744.60
2023-05-16T14:39:10.041Z,99741.40
2023-05-16T14:41:38.457Z,99747.00
2023-05-16T14:44:06.937Z,99752.80
2023-05-16T14:46:35.687Z,99756.20
2023-05-16T14:49:04.125Z,99756.60
2023-05-16T14:51:32.831Z,99755.00
2023-05-16T14:54:01.456Z,99764.00
2023-05-16T14:56:33.555Z,99755.40
2023-05-16T14:59:02.710Z,99756.40
2023-05-16T15:01:31.231Z,99753.20
2023-05-16T15:03:59.683Z,99751.80
2023-05-16T15:06:28.166Z,99750.60
2023-05-16T15:08:56.722Z,99748.80
2023-05-16T15:11:25.289Z,99756.20
2023-05-16T15:13:54.329Z,99751.60
2023-05-16T15:16:22.930Z,99741.40
2023-05-16T15:18:51.511Z,99738.80
2023-05-16T15:21:19.965Z,99737.20
2023-05-16T15:23:50.180Z,99734.40
2023-05-16T15:26:18.996Z,99742.20
2023-05-16T15:28:47.413Z,99740.00
2023-05-16T15:31:15.819Z,99738.20
2023-05-16T15:33:48.221Z,99738.00
2023-05-16T15:36:18.062Z,99733.20
2023-05-16T15:38:47.694Z,99725.60
2023-05-16T15:41:31.974Z,99727.40
2023-05-16T15:44:05.275Z,99721.80
2023-05-16T15:46:33.740Z,99720.40
2023-05-16T15:49:02.245Z,99724.60
2023-05-16T15:51:31.068Z,99725.40
2023-05-16T15:53:59.614Z,99725.00
2023-05-16T15:56:28.057Z,99725.80
2023-05-16T15:58:56.716Z,99722.00
2023-05-16T16:01:25.113Z,99717.00
2023-05-16T16:03:53.730Z,99724.40
2023-05-16T16:06:22.256Z,99720.60
2023-05-16T16:08:51.003Z,99721.40
2023-05-16T16:11:22.352Z,99715.00
2023-05-16T16:13:51.372Z,99719.20
2023-05-16T16:16:19.844Z,99712.20
2023-05-16T16:18:48.432Z,99708.00
2023-05-16T16:21:16.900Z,99708.40
2023-05-16T16:23:45.299Z,99711.60
2023-05-16T16:26:13.713Z,99712.20
2023-05-16T16:28:42.213Z,99714.20
2023-05-16T16:31:11.150Z,99710.80
2023-05-16T16:33:39.760Z,99711.80
2023-05-16T16:36:09.076Z,99723.20
2023-05-16T16:38:37.523Z,99730.00
2023-05-16T16:41:06.176Z,99725.40
2023-05-16T16:43:34.900Z,99725.00
2023-05-16T16:46:03.379Z,99720.60
2023-05-16T16:48:34.362Z,99726.40
2023-05-16T16:51:03.471Z,99733.40
2023-05-16T16:53:32.536Z,99735.00
2023-05-16T16:56:00.977Z,99722.80
2023-05-16T16:58:29.488Z,99713.80
2023-05-16T17:00:58.503Z,99721.40
2023-05-16T17:03:27.008Z,99724.40
2023-05-16T17:05:55.598Z,99736.80
2023-05-16T17:08:24.058Z,99748.20
2023-05-16T17:10:52.755Z,99752.40
2023-05-16T17:13:21.216Z,99754.00
2023-05-16T17:15:49.645Z,99756.80
2023-05-16T17:18:18.141Z,99754.60
2023-05-16T17:20:46.588Z,99750.80
2023-05-16T17:23:14.994Z,99753.00
2023-05-16T17:25:45.420Z,99752.60
2023-05-16T17:28:14.222Z,99752.00
2023-05-16T17:30:42.787Z,99751.80
2023-05-16T17:33:11.211Z,99753.00
2023-05-16T17:35:40.952Z,99765.20
2023-05-16T17:38:10.503Z,99764.40
2023-05-16T17:40:38.923Z,99766.80
2023-05-16T17:43:07.427Z,99760.60
2023-05-16T17:45:36.308Z,99762.60
2023-05-16T17:48:05.229Z,99765.40
2023-05-16T17:50:35.430Z,99778.20
2023-05-16T17:53:03.802Z,99775.60
2023-05-16T17:55:34.203Z,99783.40
2023-05-16T17:58:03.628Z,99794.40
2023-05-16T18:00:33.070Z,99795.80
2023-05-16T18:03:01.555Z,99796.60
2023-05-16T18:05:30.289Z,99797.40
2023-05-16T18:07:58.933Z,99800.40
2023-05-16T18:10:33.844Z,99795.20
2023-05-16T18:13:16.760Z,99792.20
2023-05-16T18:15:45.249Z,99788.20
2023-05-16T18:18:13.805Z,99782.20
2023-05-16T18:20:43.139Z,99788.00
2023-05-16T18:23:12.188Z,99797.60
2023-05-16T18:25:40.623Z,99812.60
2023-05-16T18:28:09.110Z,99821.80
2023-05-16T18:30:38.261Z,99824.20
2023-05-16T18:33:06.815Z,99823.60
2023-05-16T18:35:35.281Z,99819.80
2023-05-16T18:38:04.121Z,99815.60
2023-05-16T18:40:32.736Z,99825.60
2023-05-16T18:43:01.339Z,99825.40
2023-05-16T18:45:30.342Z,99817.40
2023-05-16T18:47:58.882Z,99816.40
2023-05-16T18:50:27.910Z,99817.00
2023-05-16T18:52:57.692Z,99805.20
2023-05-16T18:55:26.543Z,99800.20
2023-05-16T18:57:55.281Z,99797.60
2023-05-16T19:00:23.788Z,99803.20
2023-05-16T19:02:52.452Z,99807.80
2023-05-16T19:05:21.027Z,99811.20
2023-05-16T19:07:49.558Z,99804.00
2023-05-16T19:10:18.111Z,99804.40
2023-05-16T19:12:49.314Z,99810.40
2023-05-16T19:15:17.904Z,99804.80
2023-05-16T19:17:47.305Z,99802.20
2023-05-16T19:20:15.948Z,99802.20
2023-05-16T19:22:44.328Z,99806.40
2023-05-16T19:25:13.446Z,99808.20
2023-05-16T19:27:43.036Z,99805.80
2023-05-16T19:30:12.225Z,99808.20
2023-05-16T19:32:40.768Z,99802.00
2023-05-16T19:35:10.878Z,99799.20
2023-05-16T19:37:39.366Z,99794.20
2023-05-16T19:40:08.530Z,99794.00
2023-05-16T19:42:37.087Z,99794.00
2023-05-16T19:45:06.303Z,99794.80
2023-05-16T19:47:34.904Z,99796.80
2023-05-16T19:50:03.743Z,99795.40
2023-05-16T19:52:32.242Z,99797.40
2023-05-16T19:55:01.022Z,99792.80
2023-05-16T19:57:29.433Z,99791.60
2023-05-16T19:59:57.957Z,99793.60
2023-05-16T20:02:26.715Z,99791.80
2023-05-16T20:04:55.340Z,99791.40
2023-05-16T20:07:24.370Z,99790.40
2023-05-16T20:09:52.933Z,99787.00
2023-05-16T20:12:21.432Z,99781.60
2023-05-16T20:14:49.864Z,99773.20
2023-05-16T20:17:18.257Z,99766.20
2023-05-16T20:19:47.188Z,99771.60
2023-05-16T20:22:15.698Z,99772.80
2023-05-16T20:24:44.137Z,99779.20
2023-05-16T20:27:12.708Z,99776.00
2023-05-16T20:29:41.234Z,99777.60
2023-05-16T20:32:09.669Z,99776.80
2023-05-16T20:34:40.286Z,99773.80
2023-05-16T20:37:09.959Z,99769.40
2023-05-16T20:39:39.295Z,99773.60
2023-05-16T20:42:11.479Z,99773.80
2023-05-16T20:44:41.518Z,99785.00
2023-05-16T20:47:10.069Z,99801.80
2023-05-16T20:49:39.558Z,99806.60
2023-05-16T20:52:07.952Z,99802.40
2023-05-16T20:54:36.591Z,99796.20
2023-05-16T20:57:05.615Z,99801.40
2023-05-16T20:59:34.275Z,99801.60
2023-05-16T21:02:02.816Z,99801.80
2023-05-16T21:04:31.307Z,99807.40
2023-05-16T21:06:59.696Z,99813.80
2023-05-16T21:09:28.130Z,99818.20
2023-05-16T21:11:58.687Z,99821.60
2023-05-16T21:14:27.096Z,99817.20
2023-05-16T21:16:55.491Z,99815.60
2023-05-16T21:19:23.959Z,99815.80
2023-05-16T21:21:52.436Z,99814.40
2023-05-16T21:24:20.876Z,99817.00
2023-05-16T21:26:49.237Z,99806.00
2023-05-16T21:29:17.949Z,99814.00
2023-05-16T21:31:46.337Z,99812.80
2023-05-16T21:34:14.787Z,99816.20
2023-05-16T21:36:43.151Z,99812.20
2023-05-16T21:39:11.706Z,99807.60
2023-05-16T21:41:40.104Z,99809.80
2023-05-16T21:44:08.463Z,99803.40
2023-05-16T21:46:36.834Z,99802.00
2023-05-16T21:49:05.378Z,99799.60
2023-05-16T21:51:33.788Z,99801.80
2023-05-16T21:54:03.283Z,99800.00
2023-05-16T21:56:31.716Z,99790.80
2023-05-16T21:59:00.388Z,99800.80
2023-05-16T22:01:29.585Z,99797.80
2023-05-16T22:03:58.377Z,99799.40
2023-05-16T22:06:26.984Z,99797.60
2023-05-16T22:08:55.457Z,99792.20
2023-05-16T22:11:23.923Z,99786.80
2023-05-16T22:13:52.327Z,99783.80
2023-05-16T22:16:20.712Z,99780.80
2023-05-16T22:18:49.349Z,99776.80
2023-05-16T22:21:17.896Z,99783.80
2023-05-16T22:23:46.295Z,99782.80
2023-05-16T22:26:14.758Z,99778.20
2023-05-16T22:28:43.167Z,99784.40
2023-05-16T22:31:11.528Z,99792.40
2023-05-16T22:33:39.907Z,99793.80
2023-05-16T22:36:08.667Z,99797.40
2023-05-16T22:38:37.132Z,99780.80
2023-05-16T22:41:05.615Z,99786.40
2023-05-16T22:43:34.033Z,99785.40
2023-05-16T22:46:03.279Z,99789.00
2023-05-16T22:48:32.071Z,99787.20
2023-05-16T22:51:01.009Z,99785.60
2023-05-16T22:53:29.892Z,99788.80
2023-05-16T22:55:58.256Z,99784.80
2023-05-16T22:58:26.689Z,99788.00
2023-05-16T23:00:55.167Z,99781.60
2023-05-16T23:03:23.699Z,99791.80
2023-05-16T23:05:52.085Z,99791.80
2023-05-16T23:08:20.450Z,99790.80
2023-05-16T23:10:48.850Z,99789.60
2023-05-16T23:13:17.291Z,99787.20
2023-05-16T23:15:45.773Z,99786.40
2023-05-16T23:18:14.184Z,99782.20
2023-05-16T23:20:42.627Z,99781.40
2023-05-16T23:23:11.025Z,99778.00
2023-05-16T23:25:39.404Z,99784.60
2023-05-16T23:28:07.831Z,99777.60
2023-05-16T23:30:36.303Z,99778.60
2023-05-16T23:33:04.921Z,99774.00
2023-05-16T23:35:33.398Z,99773.40
2023-05-16T23:38:01.754Z,99770.00
2023-05-16T23:40:30.154Z,99772.00
2023-05-16T23:42:58.554Z,99773.00
2023-05-16T23:45:28.121Z,99773.60
2023-05-16T23:47:57.047Z,99778.40
2023-05-16T23:50:25.546Z,99774.20
2023-05-16T23:52:54.335Z,99774.40
2023-05-16T23:55:22.908Z,99773.80
2023-05-16T23:57:51.346Z,99777.00
